createdAt,value
2022-11-21T00:01:01.893Z,0.77
2022-11-21T00:11:04.972Z,0.80
2022-11-21T00:21:11.309Z,0.70
2022-11-21T00:31:20.806Z,0.90
2022-11-21T00:41:25.203Z,0.70
2022-11-21T00:51:28.209Z,1.03
2022-11-21T01:01:32.582Z,0.80
2022-11-21T01:11:36.471Z,0.70
2022-11-21T01:21:40.906Z,0.70
2022-11-21T01:31:43.982Z,0.70
2022-11-21T01:41:48.354Z,0.60
2022-11-21T01:51:55.456Z,0.60
2022-11-21T02:02:02.422Z,0.70
2022-11-21T02:12:11.128Z,0.70
2022-11-21T02:22:28.630Z,0.87
2022-11-21T02:32:37.115Z,0.60
2022-11-21T02:42:50.102Z,0.80
2022-11-21T02:52:57.071Z,0.77
2022-11-21T03:03:00.136Z,0.67
2022-11-21T03:13:04.886Z,0.70
2022-11-21T03:23:07.846Z,0.80
2022-11-21T03:33:12.194Z,0.70
2022-11-21T03:43:15.221Z,0.80
2022-11-21T03:53:19.556Z,0.60
2022-11-21T04:03:22.581Z,0.70
2022-11-21T04:13:27.072Z,0.80
2022-11-21T04:23:30.287Z,1.10
2022-11-21T04:33:34.704Z,0.80
2022-11-21T04:43:37.749Z,1.23
2022-11-21T04:53:43.341Z,1.40
2022-11-21T05:03:46.504Z,0.90
2022-11-21T05:13:53.504Z,1.13
2022-11-21T05:23:56.576Z,0.90
2022-11-21T05:34:00.955Z,0.90
2022-11-21T05:44:03.929Z,1.07
2022-11-21T05:54:08.445Z,1.00
2022-11-21T06:04:12.189Z,1.17
2022-11-21T06:14:16.584Z,1.17
2022-11-21T06:24:22.309Z,1.20
2022-11-21T06:34:28.889Z,1.30
2022-11-21T06:44:32.158Z,1.40
2022-11-21T06:54:36.506Z,1.33
2022-11-21T07:04:39.803Z,1.23
2022-11-21T07:14:44.162Z,1.40
2022-11-21T07:24:47.152Z,1.30
2022-11-21T07:34:51.522Z,1.53
2022-11-21T07:44:54.523Z,1.30
2022-11-21T07:54:59.040Z,1.30
2022-11-21T08:05:02.062Z,1.00
2022-11-21T08:15:08.603Z,1.10
2022-11-21T08:25:12.319Z,1.20
2022-11-21T08:35:16.886Z,1.10
2022-11-21T08:45:19.852Z,1.10
2022-11-21T08:55:24.227Z,0.87
2022-11-21T09:05:27.242Z,1.10
2022-11-21T09:15:49.217Z,0.90
2022-11-21T09:25:52.335Z,1.00
2022-11-21T09:35:59.365Z,0.80
2022-11-21T09:46:10.358Z,1.00
2022-11-21T09:56:19.891Z,0.90
2022-11-21T10:06:26.238Z,0.90
2022-11-21T10:16:43.228Z,1.00
2022-11-21T10:26:52.878Z,0.80
2022-11-21T10:37:01.395Z,1.13
2022-11-21T10:47:15.522Z,0.80
2022-11-21T10:57:21.336Z,0.80
2022-11-21T11:07:26.952Z,0.70
2022-11-21T11:17:33.428Z,1.03
2022-11-21T11:27:38.905Z,0.60
2022-11-21T11:37:44.563Z,0.80
2022-11-21T11:47:54.757Z,1.23
2022-11-21T11:58:02.478Z,1.00
2022-11-21T12:18:49.004Z,0.77
2022-11-21T12:29:03.554Z,1.00
2022-11-21T12:39:54.327Z,0.80
2022-11-21T12:50:21.927Z,1.17
2022-11-21T13:00:33.430Z,0.80
2022-11-21T13:10:37.665Z,1.00
2022-11-21T13:20:48.330Z,0.70
2022-11-21T13:30:52.400Z,1.33
2022-11-21T13:41:14.327Z,0.80
2022-11-21T13:51:35.789Z,0.87
2022-11-21T14:02:29.499Z,1.00
2022-11-21T14:12:42.830Z,0.97
2022-11-21T14:22:57.337Z,1.13
2022-11-21T14:33:22.536Z,1.00
2022-11-21T14:43:31.332Z,1.23
2022-11-21T14:53:35.857Z,1.30
2022-11-21T15:03:39.123Z,1.00
2022-11-21T15:14:12.631Z,0.90
2022-11-21T15:24:30.361Z,1.17
2022-11-21T15:34:36.402Z,1.07
2022-11-21T15:44:59.235Z,1.17
2022-11-21T15:55:03.714Z,1.13
2022-11-21T16:05:07.255Z,1.30
2022-11-21T16:15:11.924Z,1.43
2022-11-21T16:25:14.976Z,2.00
2022-11-21T16:35:19.438Z,1.50
2022-11-21T16:45:22.481Z,1.60
2022-11-21T16:55:26.885Z,1.77
2022-11-21T17:05:29.940Z,1.70
2022-11-21T17:15:34.395Z,1.50
2022-11-21T17:25:37.461Z,1.97
2022-11-21T17:35:41.850Z,1.90
2022-11-21T17:45:44.902Z,1.60
2022-11-21T17:55:50.554Z,1.40
2022-11-21T18:06:02.099Z,1.80
2022-11-21T18:16:07.982Z,2.07
2022-11-21T18:26:13.999Z,2.33
2022-11-21T18:36:18.890Z,2.60
2022-11-21T18:46:23.216Z,3.30
2022-11-21T18:56:27.995Z,4.87
2022-11-21T19:06:31.007Z,3.70
2022-11-21T19:16:35.498Z,3.80
2022-11-21T19:26:38.595Z,3.23
2022-11-21T19:36:43.066Z,6.30
2022-11-21T19:46:46.126Z,10.20
2022-11-21T19:56:50.569Z,4.00
2022-11-21T20:06:53.775Z,4.00
2022-11-21T20:16:58.226Z,3.00
2022-11-21T20:27:01.203Z,4.20
2022-11-21T20:37:05.660Z,7.67
2022-11-21T20:47:09.441Z,3.30
2022-11-21T20:57:15.461Z,3.30
2022-11-21T21:07:18.748Z,3.33
2022-11-21T21:17:23.162Z,3.87
2022-11-21T21:27:26.185Z,3.60
2022-11-21T21:37:30.909Z,3.97
2022-11-21T21:47:33.948Z,4.70
2022-11-21T21:57:43.567Z,5.13
2022-11-21T22:07:49.261Z,5.60
2022-11-21T22:17:54.130Z,5.80
2022-11-21T22:27:57.555Z,6.17
2022-11-21T22:38:02.327Z,7.00
2022-11-21T22:48:06.828Z,7.10
2022-11-21T22:58:11.280Z,7.77
2022-11-21T23:08:14.304Z,7.87
2022-11-21T23:18:18.754Z,7.20
2022-11-21T23:28:22.135Z,7.77
2022-11-21T23:38:26.599Z,8.10
2022-11-21T23:48:29.659Z,8.63
2022-11-21T23:58:34.082Z,8.70
